Flight Track Log - Related Links

Times and Time Zones

All times are in EDT time to prevent confusion due to time zone crossing. See the UPS9610 flight status page for this flight to view local times or setup timezone preferences in your user account.

Time Position Orientation Groundspeed Altitude Reporting Facility
EDT Latitude Longitude Course Direction KTS MPH feet Rate Location/Type
Mon 07:07:19 PM 43.8597 -92.6475 162° South 466 536 30,800  Level Minneapolis Center
Mon 07:08:19 PM 43.7492 -92.5972 173° South 472 543 32,900 1,556 Climbing Minneapolis Center
Mon 07:11:18 PM 43.3717 -92.5314 174° South 460 529 37,000 863 Climbing Minneapolis Center
Mon 07:13:04 PM 43.1539 -92.4975 173° South 439 505 37,000  Level Chicago Center
Mon 07:14:04 PM 43.0294 -92.4769 173° South 444 511 37,000  Level Chicago Center
Mon 07:15:04 PM 42.9069 -92.4567 164° South 444 511 37,000  Level Chicago Center
Mon 07:16:04 PM 42.7894 -92.4111 149° Southeast 444 511 37,000  Level Chicago Center
Mon 07:17:04 PM 42.6772 -92.3181 150° Southeast 455 524 37,000  Level Chicago Center
Mon 07:18:04 PM 42.5647 -92.2311 149° Southeast 467 537 37,000  Level Chicago Center
Mon 07:19:04 PM 42.4419 -92.1325 149° Southeast 474 545 37,000  Level Chicago Center
Mon 07:20:04 PM 42.3294 -92.0406 149° Southeast 474 545 37,000  Level Chicago Center
Mon 07:21:04 PM 42.2211 -91.9519 150° Southeast 474 545 37,000  Level Chicago Center
Mon 07:23:04 PM 41.9936 -91.7750 149° Southeast 467 537 37,000  Level Chicago Center
Mon 07:24:04 PM 41.8828 -91.6872 150° Southeast 467 537 37,000  Level Chicago Center
Mon 07:25:04 PM 41.7719 -91.6022 150° Southeast 467 537 37,000  Level Chicago Center
Mon 07:26:04 PM 41.6608 -91.5178 150° Southeast 462 532 37,000  Level Chicago Center
Mon 07:27:04 PM 41.5542 -91.4339 150° Southeast 457 526 37,000  Level Chicago Center
Mon 07:28:04 PM 41.4431 -91.3497 152° Southeast 457 526 37,000  Level Chicago Center
Mon 07:29:04 PM 41.3339 -91.2719 149° Southeast 452 520 37,000  Level Chicago Center
Mon 07:30:04 PM 41.2269 -91.1858 151° Southeast 452 520 37,000  Level Chicago Center
Mon 07:31:04 PM 41.1156 -91.1056 149° Southeast 452 520 37,000  Level Chicago Center
Mon 07:32:04 PM 41.0064 -91.0200 151° Southeast 452 520 37,000  Level Chicago Center
Mon 07:34:36 PM 40.7264 -90.8169 150° Southeast 457 526 37,000  Level Kansas City Center
Mon 07:35:36 PM 40.6175 -90.7350 150° Southeast 457 526 37,000  Level Kansas City Center
Mon 07:36:36 PM 40.5089 -90.6536 150° Southeast 451 519 37,000  Level Kansas City Center
Mon 07:37:36 PM 40.4000 -90.5725 150° Southeast 451 519 37,000  Level Kansas City Center
Mon 07:38:36 PM 40.2908 -90.4914 140° Southeast 451 519 37,000  Level Kansas City Center
Mon 07:39:36 PM 40.1936 -90.3856 128° Southeast 451 519 37,000  Level Kansas City Center
Mon 07:40:36 PM 40.1117 -90.2494 129° Southeast 456 525 37,000  Level Kansas City Center
Mon 07:41:36 PM 40.0300 -90.1161 128° Southeast 466 536 37,000  Level Kansas City Center
Mon 07:42:36 PM 39.9500 -89.9828 127° Southeast 466 536 37,000  Level Kansas City Center
Mon 07:43:36 PM 39.8717 -89.8472 125° Southeast 471 542 37,000  Level Kansas City Center
Mon 07:44:36 PM 39.7978 -89.7117 126° Southeast 465 535 37,000  Level Kansas City Center
Mon 07:45:36 PM 39.7236 -89.5789 127° Southeast 465 535 37,000  Level Kansas City Center
Mon 07:46:36 PM 39.6492 -89.4492 127° Southeast 459 528 37,000  Level Kansas City Center
Mon 07:47:36 PM 39.5750 -89.3200 121° Southeast 459 528 37,000 -50 Level Kansas City Center
Mon 07:48:36 PM 39.5106 -89.1819 113° Southeast 459 528 36,900 -550 Descending Kansas City Center
Mon 07:49:36 PM 39.4597 -89.0269 112° Southeast 454 522 35,900 -950 Descending Kansas City Center
Mon 07:50:36 PM 39.4108 -88.8722 114° Southeast 459 528 35,000 -450 Descending Kansas City Center
Mon 07:51:36 PM 39.3600 -88.7231 124° Southeast 459 528 35,000  Level Kansas City Center
Mon 07:52:36 PM 39.2908 -88.5892 142° Southeast 454 522 35,000 -194 Level Kansas City Center
Mon 07:54:11 PM 39.1550 -88.4525 124° Southeast 421 484 34,500 -1,239 Descending Indianapolis Center
Mon 07:55:11 PM 39.0836 -88.3167 117° Southeast 426 490 31,800 -2,600 Descending Indianapolis Center
Mon 07:56:11 PM 39.0247 -88.1683 119° Southeast 446 513 29,300 -1,950 Descending Indianapolis Center
Mon 07:57:11 PM 38.9636 -88.0253 122° Southeast 460 529 27,900 -1,550 Descending Indianapolis Center
Mon 07:58:11 PM 38.8978 -87.8878 121° Southeast 460 529 26,200 -1,600 Descending Indianapolis Center
Mon 07:59:11 PM 38.8336 -87.7533 121° Southeast 454 522 24,700 -1,500 Descending Indianapolis Center
Mon 08:00:11 PM 38.7717 -87.6219 122° Southeast 442 509 23,200 -1,450 Descending Indianapolis Center
Mon 08:01:11 PM 38.7092 -87.4933 121° Southeast 437 503 21,800 -1,400 Descending Indianapolis Center
Mon 08:02:11 PM 38.6508 -87.3703 128° Southeast 423 487 20,400 -1,350 Descending Indianapolis Center
Mon 08:03:11 PM 38.5833 -87.2581 144° Southeast 416 479 19,100 -1,250 Descending Indianapolis Center
Mon 08:04:11 PM 38.4922 -87.1736 143° Southeast 385 443 17,900 -1,200 Descending Indianapolis Center
Mon 08:05:11 PM 38.4092 -87.0928 123° Southeast 380 437 16,700 -1,250 Descending Indianapolis Center
Mon 08:06:11 PM 38.3519 -86.9786 109° East 375 432 15,400 -1,250 Descending Indianapolis Center
Mon 08:07:11 PM 38.3181 -86.8528 107° East 367 422 14,200 -1,100 Descending Indianapolis Center
Mon 08:08:11 PM 38.2936 -86.7536 108° East 367 422 13,200 -1,100 Descending Indianapolis Center
Mon 08:09:11 PM 38.2578 -86.6144 106° East 373 429 12,000 -1,250 Descending Indianapolis Center
Mon 08:10:11 PM 38.2294 -86.4892 84° East 373 429 10,700 -945 Descending Indianapolis Center
Mon 08:11:18 PM 38.2408 -86.3442 81° East 339 390 10,000 -897 Descending FAA TRACON SMA TRACON (SMA)
Mon 08:11:58 PM 38.2503 -86.2647 81° East 329 379 9,100 -1,725 Descending FAA TRACON SMA TRACON (SMA)
Mon 08:12:38 PM 38.2597 -86.1883 81° East 314 361 7,700 -1,899 Descending FAA TRACON SMA TRACON (SMA)
Mon 08:13:17 PM 38.2678 -86.1222 81° East 308 354 6,600 -1,425 Descending FAA TRACON SMA TRACON (SMA)
Mon 08:13:58 PM 38.2764 -86.0497 78° East 299 344 5,800 -1,185 Descending FAA TRACON SMA TRACON (SMA)
Mon 08:14:38 PM 38.2878 -85.9800 71° East 293 337 5,000 -1,050 Descending FAA TRACON SMA TRACON (SMA)
Mon 08:15:18 PM 38.3036 -85.9211 71° East 286 329 4,400 -600 Descending FAA TRACON SMA TRACON (SMA)
Mon 08:15:58 PM 38.3214 -85.8553 72° East 284 327 4,200 -304 Descending FAA TRACON SMA TRACON (SMA)
Mon 08:16:37 PM 38.3364 -85.7978 120° Southeast 280 322 4,000 -150 Descending FAA TRACON SMA TRACON (SMA)
Mon 08:17:18 PM 38.3131 -85.7464 148° Southeast 263 303 4,000  Level FAA TRACON SMA TRACON (SMA)
Mon 08:17:58 PM 38.2736 -85.7150 148° Southeast 240 276 4,000 -300 Level FAA TRACON SMA TRACON (SMA)
Mon 08:18:38 PM 38.2392 -85.6872 147° Southeast 237 273 3,600 -675 Descending FAA TRACON SMA TRACON (SMA)
Mon 08:19:18 PM 38.2033 -85.6572 154° Southeast 220 253 3,100 -684 Descending FAA TRACON SMA TRACON (SMA)
Mon 08:19:57 PM 38.1719 -85.6375 167° South 205 236 2,700 -450 Descending FAA TRACON SMA TRACON (SMA)
Mon 08:20:38 PM 38.1381 -85.6272 207° Southwest 177 204 2,500 -148 Descending FAA TRACON SMA TRACON (SMA)
Mon 08:21:18 PM 38.1153 -85.6422 237° Southwest 129 148 2,500 -75 Level FAA TRACON SMA TRACON (SMA)
Mon 08:21:58 PM 38.1042 -85.6642 270° West 122 140 2,400 -525 Descending FAA TRACON SMA TRACON (SMA)
Mon 08:22:38 PM 38.1042 -85.6914 324° Northwest 129 148 1,800 -750 Descending FAA TRACON SMA TRACON (SMA)
Mon 08:23:18 PM 38.1231 -85.7089 345° North 120 138 1,400 -608 Descending FAA TRACON SMA TRACON (SMA)
Mon 08:23:57 PM 38.1436 -85.7161 344° North 125 144 1,000 -608 Descending FAA TRACON SMA TRACON (SMA)
Mon 08:24:37 PM 38.1611 -85.7225 344° North 120 138 600 -600 Descending FAA TRACON SMA TRACON (SMA)

Login

Don't have an account? Register now (free) for customized features, flight alerts, and more!